sensor_id;sensor_type;location;lat;lon;timestamp;P1;durP1;ratioP1;P2;durP2;ratioP2
28577;SDS011;15769;52.248;15.818;2023-05-01T00:03:21;44.77;;;15.83;;
28577;SDS011;15769;52.248;15.818;2023-05-01T00:08:24;49.35;;;19.80;;
28577;SDS011;15769;52.248;15.818;2023-05-01T00:13:27;44.70;;;15.73;;
28577;SDS011;15769;52.248;15.818;2023-05-01T00:18:30;30.13;;;12.10;;
28577;SDS011;15769;52.248;15.818;2023-05-01T00:23:35;23.35;;;9.82;;
28577;SDS011;15769;52.248;15.818;2023-05-01T00:28:38;25.27;;;10.57;;
28577;SDS011;15769;52.248;15.818;2023-05-01T00:33:41;21.77;;;9.23;;
28577;SDS011;15769;52.248;15.818;2023-05-01T00:38:47;17.85;;;9.10;;
28577;SDS011;15769;52.248;15.818;2023-05-01T00:43:52;19.80;;;9.57;;
28577;SDS011;15769;52.248;15.818;2023-05-01T00:48:57;23.60;;;11.23;;
28577;SDS011;15769;52.248;15.818;2023-05-01T00:54:00;22.27;;;10.30;;
28577;SDS011;15769;52.248;15.818;2023-05-01T00:59:06;21.17;;;10.68;;
28577;SDS011;15769;52.248;15.818;2023-05-01T01:04:09;25.70;;;10.38;;
28577;SDS011;15769;52.248;15.818;2023-05-01T01:31:12;25.05;;;12.60;;
28577;SDS011;15769;52.248;15.818;2023-05-01T01:41:33;20.40;;;9.70;;
28577;SDS011;15769;52.248;15.818;2023-05-01T01:46:38;22.20;;;11.35;;
28577;SDS011;15769;52.248;15.818;2023-05-01T01:51:43;23.58;;;11.77;;
28577;SDS011;15769;52.248;15.818;2023-05-01T01:56:49;22.67;;;9.60;;
28577;SDS011;15769;52.248;15.818;2023-05-01T02:01:53;23.58;;;10.15;;
28577;SDS011;15769;52.248;15.818;2023-05-01T02:06:56;19.95;;;9.82;;
28577;SDS011;15769;52.248;15.818;2023-05-01T02:12:00;25.70;;;10.48;;
28577;SDS011;15769;52.248;15.818;2023-05-01T02:17:05;26.92;;;11.40;;
28577;SDS011;15769;52.248;15.818;2023-05-01T02:22:09;26.35;;;10.88;;
28577;SDS011;15769;52.248;15.818;2023-05-01T02:27:19;22.15;;;9.75;;
28577;SDS011;15769;52.248;15.818;2023-05-01T02:32:26;23.17;;;10.68;;
28577;SDS011;15769;52.248;15.818;2023-05-01T02:37:30;20.42;;;10.27;;
28577;SDS011;15769;52.248;15.818;2023-05-01T02:42:33;25.13;;;11.68;;
28577;SDS011;15769;52.248;15.818;2023-05-01T02:47:40;24.65;;;11.43;;
28577;SDS011;15769;52.248;15.818;2023-05-01T02:52:44;23.50;;;10.80;;
28577;SDS011;15769;52.248;15.818;2023-05-01T02:58:14;25.92;;;10.32;;
28577;SDS011;15769;52.248;15.818;2023-05-01T03:03:21;16.58;;;7.70;;
28577;SDS011;15769;52.248;15.818;2023-05-01T03:08:24;25.88;;;12.50;;
28577;SDS011;15769;52.248;15.818;2023-05-01T03:13:31;24.48;;;10.93;;
28577;SDS011;15769;52.248;15.818;2023-05-01T03:18:34;23.63;;;10.88;;
28577;SDS011;15769;52.248;15.818;2023-05-01T03:23:37;22.40;;;10.43;;
28577;SDS011;15769;52.248;15.818;2023-05-01T03:28:40;20.60;;;9.67;;
28577;SDS011;15769;52.248;15.818;2023-05-01T03:33:44;21.97;;;9.77;;
28577;SDS011;15769;52.248;15.818;2023-05-01T03:38:47;20.83;;;10.00;;
28577;SDS011;15769;52.248;15.818;2023-05-01T03:44:01;21.08;;;11.20;;
28577;SDS011;15769;52.248;15.818;2023-05-01T03:49:12;19.48;;;9.38;;
28577;SDS011;15769;52.248;15.818;2023-05-01T03:54:20;20.35;;;10.50;;
28577;SDS011;15769;52.248;15.818;2023-05-01T03:59:50;19.45;;;10.88;;
28577;SDS011;15769;52.248;15.818;2023-05-01T04:04:53;21.48;;;10.88;;
28577;SDS011;15769;52.248;15.818;2023-05-01T04:09:56;20.23;;;9.80;;
28577;SDS011;15769;52.248;15.818;2023-05-01T04:15:01;16.55;;;7.32;;
28577;SDS011;15769;52.248;15.818;2023-05-01T04:20:06;21.40;;;10.40;;
28577;SDS011;15769;52.248;15.818;2023-05-01T04:25:12;18.90;;;8.65;;
28577;SDS011;15769;52.248;15.818;2023-05-01T04:30:16;14.88;;;8.63;;
28577;SDS011;15769;52.248;15.818;2023-05-01T04:35:20;19.80;;;9.05;;
28577;SDS011;15769;52.248;15.818;2023-05-01T04:40:24;15.70;;;8.70;;
28577;SDS011;15769;52.248;15.818;2023-05-01T04:45:26;16.00;;;8.77;;
28577;SDS011;15769;52.248;15.818;2023-05-01T04:50:34;16.88;;;8.48;;
28577;SDS011;15769;52.248;15.818;2023-05-01T04:55:38;13.35;;;7.60;;
28577;SDS011;15769;52.248;15.818;2023-05-01T05:00:47;13.63;;;7.10;;
28577;SDS011;15769;52.248;15.818;2023-05-01T05:05:55;15.15;;;7.82;;
28577;SDS011;15769;52.248;15.818;2023-05-01T05:11:00;13.30;;;7.30;;
28577;SDS011;15769;52.248;15.818;2023-05-01T05:16:19;15.00;;;7.78;;
28577;SDS011;15769;52.248;15.818;2023-05-01T05:21:23;12.48;;;6.50;;
28577;SDS011;15769;52.248;15.818;2023-05-01T05:26:29;10.52;;;6.28;;
28577;SDS011;15769;52.248;15.818;2023-05-01T05:31:36;12.60;;;6.93;;
28577;SDS011;15769;52.248;15.818;2023-05-01T05:36:39;12.20;;;6.63;;
28577;SDS011;15769;52.248;15.818;2023-05-01T05:41:42;13.13;;;6.30;;
28577;SDS011;15769;52.248;15.818;2023-05-01T05:46:46;10.73;;;6.85;;
28577;SDS011;15769;52.248;15.818;2023-05-01T05:51:57;9.13;;;6.10;;
28577;SDS011;15769;52.248;15.818;2023-05-01T05:57:04;11.90;;;6.70;;
28577;SDS011;15769;52.248;15.818;2023-05-01T06:02:09;9.82;;;6.05;;
28577;SDS011;15769;52.248;15.818;2023-05-01T06:07:12;9.27;;;5.68;;
28577;SDS011;15769;52.248;15.818;2023-05-01T06:12:15;10.18;;;6.43;;
28577;SDS011;15769;52.248;15.818;2023-05-01T06:17:18;9.57;;;6.00;;
28577;SDS011;15769;52.248;15.818;2023-05-01T06:22:23;10.43;;;6.30;;
28577;SDS011;15769;52.248;15.818;2023-05-01T06:27:34;11.60;;;6.28;;
28577;SDS011;15769;52.248;15.818;2023-05-01T06:32:41;11.50;;;6.45;;
28577;SDS011;15769;52.248;15.818;2023-05-01T06:37:48;10.48;;;6.20;;
28577;SDS011;15769;52.248;15.818;2023-05-01T06:42:56;11.65;;;6.65;;
28577;SDS011;15769;52.248;15.818;2023-05-01T06:48:05;15.23;;;7.03;;
28577;SDS011;15769;52.248;15.818;2023-05-01T06:53:11;12.07;;;7.22;;
28577;SDS011;15769;52.248;15.818;2023-05-01T07:03:25;11.10;;;6.72;;
28577;SDS011;15769;52.248;15.818;2023-05-01T07:08:29;12.30;;;6.30;;
28577;SDS011;15769;52.248;15.818;2023-05-01T07:13:32;9.65;;;6.22;;
28577;SDS011;15769;52.248;15.818;2023-05-01T07:23:44;13.95;;;7.03;;
28577;SDS011;15769;52.248;15.818;2023-05-01T07:28:47;9.88;;;6.70;;
28577;SDS011;15769;52.248;15.818;2023-05-01T07:33:50;11.95;;;7.07;;
28577;SDS011;15769;52.248;15.818;2023-05-01T07:38:55;14.20;;;8.57;;
28577;SDS011;15769;52.248;15.818;2023-05-01T07:43:59;12.15;;;7.10;;
28577;SDS011;15769;52.248;15.818;2023-05-01T07:49:02;12.75;;;8.30;;
28577;SDS011;15769;52.248;15.818;2023-05-01T07:54:05;13.10;;;7.93;;
28577;SDS011;15769;52.248;15.818;2023-05-01T07:59:11;9.85;;;7.07;;
28577;SDS011;15769;52.248;15.818;2023-05-01T08:04:17;10.32;;;7.00;;
28577;SDS011;15769;52.248;15.818;2023-05-01T08:09:20;14.23;;;7.32;;
28577;SDS011;15769;52.248;15.818;2023-05-01T08:14:23;10.98;;;6.93;;
28577;SDS011;15769;52.248;15.818;2023-05-01T08:19:26;12.05;;;7.47;;
28577;SDS011;15769;52.248;15.818;2023-05-01T08:24:31;11.77;;;6.43;;
28577;SDS011;15769;52.248;15.818;2023-05-01T08:29:35;11.40;;;7.05;;
28577;SDS011;15769;52.248;15.818;2023-05-01T08:34:39;15.13;;;7.10;;
28577;SDS011;15769;52.248;15.818;2023-05-01T08:39:44;11.15;;;6.70;;
28577;SDS011;15769;52.248;15.818;2023-05-01T08:44:48;13.10;;;6.60;;
28577;SDS011;15769;52.248;15.818;2023-05-01T08:49:53;12.02;;;6.75;;
28577;SDS011;15769;52.248;15.818;2023-05-01T08:55:13;25.45;;;8.82;;
28577;SDS011;15769;52.248;15.818;2023-05-01T09:00:18;17.92;;;7.57;;
28577;SDS011;15769;52.248;15.818;2023-05-01T09:05:22;8.52;;;5.88;;
28577;SDS011;15769;52.248;15.818;2023-05-01T09:10:25;11.55;;;6.10;;
28577;SDS011;15769;52.248;15.818;2023-05-01T09:15:32;10.70;;;5.85;;
28577;SDS011;15769;52.248;15.818;2023-05-01T09:20:36;9.02;;;5.53;;
28577;SDS011;15769;52.248;15.818;2023-05-01T09:25:41;8.15;;;5.00;;
28577;SDS011;15769;52.248;15.818;2023-05-01T09:30:44;9.50;;;5.47;;
28577;SDS011;15769;52.248;15.818;2023-05-01T09:35:53;10.82;;;5.63;;
28577;SDS011;15769;52.248;15.818;2023-05-01T09:41:04;8.60;;;4.20;;
28577;SDS011;15769;52.248;15.818;2023-05-01T09:46:10;10.25;;;4.38;;
28577;SDS011;15769;52.248;15.818;2023-05-01T09:51:25;6.97;;;3.97;;
28577;SDS011;15769;52.248;15.818;2023-05-01T09:56:32;11.20;;;4.18;;
28577;SDS011;15769;52.248;15.818;2023-05-01T10:01:36;8.88;;;4.43;;
28577;SDS011;15769;52.248;15.818;2023-05-01T10:06:44;8.80;;;4.10;;
28577;SDS011;15769;52.248;15.818;2023-05-01T10:11:47;7.32;;;3.88;;
28577;SDS011;15769;52.248;15.818;2023-05-01T10:16:55;8.82;;;5.32;;
28577;SDS011;15769;52.248;15.818;2023-05-01T10:22:01;12.50;;;5.13;;
28577;SDS011;15769;52.248;15.818;2023-05-01T10:27:05;28.00;;;22.95;;
28577;SDS011;15769;52.248;15.818;2023-05-01T10:32:09;15.88;;;8.77;;
28577;SDS011;15769;52.248;15.818;2023-05-01T10:37:20;35.55;;;15.15;;
28577;SDS011;15769;52.248;15.818;2023-05-01T10:42:26;10.10;;;5.53;;
28577;SDS011;15769;52.248;15.818;2023-05-01T11:03:44;8.57;;;5.07;;
28577;SDS011;15769;52.248;15.818;2023-05-01T11:08:49;8.45;;;5.20;;
28577;SDS011;15769;52.248;15.818;2023-05-01T11:14:05;10.40;;;5.32;;
28577;SDS011;15769;52.248;15.818;2023-05-01T11:24:32;8.35;;;4.45;;
28577;SDS011;15769;52.248;15.818;2023-05-01T11:29:37;9.10;;;5.22;;
28577;SDS011;15769;52.248;15.818;2023-05-01T11:34:42;9.25;;;5.35;;
28577;SDS011;15769;52.248;15.818;2023-05-01T11:39:48;9.27;;;5.07;;
28577;SDS011;15769;52.248;15.818;2023-05-01T11:45:05;8.05;;;5.45;;
28577;SDS011;15769;52.248;15.818;2023-05-01T11:50:14;8.02;;;5.78;;
28577;SDS011;15769;52.248;15.818;2023-05-01T11:55:20;9.70;;;5.85;;
28577;SDS011;15769;52.248;15.818;2023-05-01T12:00:27;7.70;;;4.72;;
28577;SDS011;15769;52.248;15.818;2023-05-01T12:05:31;9.80;;;4.75;;
28577;SDS011;15769;52.248;15.818;2023-05-01T12:10:39;7.65;;;4.90;;
28577;SDS011;15769;52.248;15.818;2023-05-01T12:15:48;10.93;;;4.80;;
28577;SDS011;15769;52.248;15.818;2023-05-01T12:20:55;10.40;;;4.80;;
28577;SDS011;15769;52.248;15.818;2023-05-01T12:25:58;9.45;;;4.30;;
28577;SDS011;15769;52.248;15.818;2023-05-01T12:31:01;9.43;;;4.82;;
28577;SDS011;15769;52.248;15.818;2023-05-01T12:36:07;8.25;;;4.28;;
28577;SDS011;15769;52.248;15.818;2023-05-01T12:41:13;10.27;;;5.22;;
28577;SDS011;15769;52.248;15.818;2023-05-01T12:46:18;7.78;;;4.68;;
28577;SDS011;15769;52.248;15.818;2023-05-01T12:51:21;9.57;;;5.25;;
28577;SDS011;15769;52.248;15.818;2023-05-01T12:56:26;9.43;;;6.30;;
28577;SDS011;15769;52.248;15.818;2023-05-01T13:01:33;8.65;;;5.18;;
28577;SDS011;15769;52.248;15.818;2023-05-01T13:06:36;6.10;;;5.13;;
28577;SDS011;15769;52.248;15.818;2023-05-01T13:11:42;7.50;;;4.80;;
28577;SDS011;15769;52.248;15.818;2023-05-01T13:22:33;8.88;;;5.13;;
28577;SDS011;15769;52.248;15.818;2023-05-01T13:27:40;7.80;;;5.20;;
28577;SDS011;15769;52.248;15.818;2023-05-01T13:32:43;6.05;;;4.57;;
28577;SDS011;15769;52.248;15.818;2023-05-01T13:37:48;11.02;;;5.72;;
28577;SDS011;15769;52.248;15.818;2023-05-01T13:42:53;11.82;;;5.95;;
28577;SDS011;15769;52.248;15.818;2023-05-01T13:47:56;14.07;;;7.00;;
28577;SDS011;15769;52.248;15.818;2023-05-01T13:53:01;10.25;;;6.18;;
28577;SDS011;15769;52.248;15.818;2023-05-01T13:58:09;12.18;;;7.03;;
28577;SDS011;15769;52.248;15.818;2023-05-01T14:03:14;8.55;;;4.90;;
28577;SDS011;15769;52.248;15.818;2023-05-01T14:08:21;9.93;;;5.53;;
28577;SDS011;15769;52.248;15.818;2023-05-01T14:13:31;8.15;;;4.50;;
28577;SDS011;15769;52.248;15.818;2023-05-01T14:18:35;7.35;;;4.70;;
28577;SDS011;15769;52.248;15.818;2023-05-01T14:23:47;14.45;;;9.80;;
28577;SDS011;15769;52.248;15.818;2023-05-01T14:28:50;12.20;;;7.70;;
28577;SDS011;15769;52.248;15.818;2023-05-01T14:33:56;9.93;;;4.97;;
28577;SDS011;15769;52.248;15.818;2023-05-01T14:39:07;8.60;;;4.57;;
28577;SDS011;15769;52.248;15.818;2023-05-01T14:44:14;8.45;;;4.80;;
28577;SDS011;15769;52.248;15.818;2023-05-01T14:49:20;9.23;;;4.82;;
28577;SDS011;15769;52.248;15.818;2023-05-01T14:54:24;7.70;;;4.35;;
28577;SDS011;15769;52.248;15.818;2023-05-01T14:59:28;6.88;;;4.43;;
28577;SDS011;15769;52.248;15.818;2023-05-01T15:04:34;5.82;;;3.88;;
28577;SDS011;15769;52.248;15.818;2023-05-01T15:09:40;6.75;;;4.00;;
28577;SDS011;15769;52.248;15.818;2023-05-01T15:14:44;8.95;;;3.75;;
28577;SDS011;15769;52.248;15.818;2023-05-01T15:19:47;6.47;;;3.88;;
28577;SDS011;15769;52.248;15.818;2023-05-01T15:24:50;7.35;;;3.88;;
28577;SDS011;15769;52.248;15.818;2023-05-01T15:29:53;6.32;;;3.92;;
28577;SDS011;15769;52.248;15.818;2023-05-01T15:34:56;8.60;;;3.50;;
28577;SDS011;15769;52.248;15.818;2023-05-01T15:39:59;4.60;;;3.30;;
28577;SDS011;15769;52.248;15.818;2023-05-01T15:45:03;8.55;;;3.22;;
28577;SDS011;15769;52.248;15.818;2023-05-01T15:50:08;5.43;;;3.40;;
28577;SDS011;15769;52.248;15.818;2023-05-01T15:55:14;4.95;;;3.05;;
28577;SDS011;15769;52.248;15.818;2023-05-01T16:00:19;6.32;;;3.22;;
28577;SDS011;15769;52.248;15.818;2023-05-01T16:05:23;5.28;;;3.30;;
28577;SDS011;15769;52.248;15.818;2023-05-01T16:10:26;6.63;;;3.63;;
28577;SDS011;15769;52.248;15.818;2023-05-01T16:15:30;6.43;;;3.40;;
28577;SDS011;15769;52.248;15.818;2023-05-01T16:20:35;8.25;;;3.28;;
28577;SDS011;15769;52.248;15.818;2023-05-01T16:25:41;5.30;;;3.55;;
28577;SDS011;15769;52.248;15.818;2023-05-01T16:30:47;12.00;;;6.10;;
28577;SDS011;15769;52.248;15.818;2023-05-01T16:35:50;6.22;;;3.50;;
28577;SDS011;15769;52.248;15.818;2023-05-01T16:45:57;8.60;;;3.65;;
28577;SDS011;15769;52.248;15.818;2023-05-01T16:56:05;6.75;;;3.70;;
28577;SDS011;15769;52.248;15.818;2023-05-01T17:01:10;4.00;;;3.33;;
28577;SDS011;15769;52.248;15.818;2023-05-01T17:06:14;6.88;;;3.53;;
28577;SDS011;15769;52.248;15.818;2023-05-01T17:11:17;4.78;;;3.30;;
28577;SDS011;15769;52.248;15.818;2023-05-01T17:16:20;5.47;;;3.33;;
28577;SDS011;15769;52.248;15.818;2023-05-01T17:21:34;4.88;;;3.05;;
28577;SDS011;15769;52.248;15.818;2023-05-01T17:26:43;7.13;;;3.63;;
28577;SDS011;15769;52.248;15.818;2023-05-01T17:31:46;6.53;;;4.68;;
28577;SDS011;15769;52.248;15.818;2023-05-01T17:36:49;18.65;;;11.32;;
28577;SDS011;15769;52.248;15.818;2023-05-01T17:41:53;19.92;;;11.32;;
28577;SDS011;15769;52.248;15.818;2023-05-01T17:46:57;14.40;;;8.90;;
28577;SDS011;15769;52.248;15.818;2023-05-01T17:52:00;23.75;;;12.27;;
28577;SDS011;15769;52.248;15.818;2023-05-01T17:57:04;22.40;;;11.80;;
28577;SDS011;15769;52.248;15.818;2023-05-01T18:02:11;22.83;;;12.50;;
28577;SDS011;15769;52.248;15.818;2023-05-01T18:07:14;37.45;;;19.00;;
28577;SDS011;15769;52.248;15.818;2023-05-01T18:12:19;32.17;;;16.20;;
28577;SDS011;15769;52.248;15.818;2023-05-01T18:17:22;21.05;;;11.40;;
28577;SDS011;15769;52.248;15.818;2023-05-01T18:22:25;13.48;;;6.90;;
28577;SDS011;15769;52.248;15.818;2023-05-01T18:27:33;12.02;;;6.05;;
28577;SDS011;15769;52.248;15.818;2023-05-01T18:32:44;15.35;;;6.45;;
28577;SDS011;15769;52.248;15.818;2023-05-01T18:37:50;10.10;;;5.32;;
28577;SDS011;15769;52.248;15.818;2023-05-01T18:42:52;9.05;;;5.05;;
28577;SDS011;15769;52.248;15.818;2023-05-01T18:47:55;11.15;;;5.38;;
28577;SDS011;15769;52.248;15.818;2023-05-01T18:52:58;12.88;;;6.80;;
28577;SDS011;15769;52.248;15.818;2023-05-01T18:58:01;15.90;;;9.23;;
28577;SDS011;15769;52.248;15.818;2023-05-01T19:03:03;18.83;;;9.63;;
28577;SDS011;15769;52.248;15.818;2023-05-01T19:08:06;34.43;;;15.30;;
28577;SDS011;15769;52.248;15.818;2023-05-01T19:13:10;20.55;;;12.93;;
28577;SDS011;15769;52.248;15.818;2023-05-01T19:18:13;33.33;;;17.77;;
28577;SDS011;15769;52.248;15.818;2023-05-01T19:23:17;55.97;;;28.55;;
28577;SDS011;15769;52.248;15.818;2023-05-01T19:28:20;43.63;;;22.87;;
28577;SDS011;15769;52.248;15.818;2023-05-01T19:33:27;37.08;;;19.63;;
28577;SDS011;15769;52.248;15.818;2023-05-01T19:38:30;34.42;;;18.40;;
28577;SDS011;15769;52.248;15.818;2023-05-01T19:43:32;31.17;;;17.10;;
28577;SDS011;15769;52.248;15.818;2023-05-01T19:48:35;33.63;;;17.73;;
28577;SDS011;15769;52.248;15.818;2023-05-01T19:53:38;28.13;;;13.67;;
28577;SDS011;15769;52.248;15.818;2023-05-01T19:58:40;22.43;;;10.67;;
28577;SDS011;15769;52.248;15.818;2023-05-01T20:03:43;39.27;;;24.07;;
28577;SDS011;15769;52.248;15.818;2023-05-01T20:08:46;46.83;;;22.48;;
28577;SDS011;15769;52.248;15.818;2023-05-01T20:13:49;44.50;;;17.88;;
28577;SDS011;15769;52.248;15.818;2023-05-01T20:18:52;45.53;;;17.52;;
28577;SDS011;15769;52.248;15.818;2023-05-01T20:23:57;39.05;;;16.85;;
28577;SDS011;15769;52.248;15.818;2023-05-01T20:29:00;23.93;;;13.07;;
28577;SDS011;15769;52.248;15.818;2023-05-01T20:34:10;39.72;;;22.05;;
28577;SDS011;15769;52.248;15.818;2023-05-01T20:39:13;48.83;;;25.08;;
28577;SDS011;15769;52.248;15.818;2023-05-01T20:44:16;48.47;;;27.17;;
28577;SDS011;15769;52.248;15.818;2023-05-01T20:49:21;51.77;;;32.83;;
28577;SDS011;15769;52.248;15.818;2023-05-01T20:54:24;50.83;;;25.88;;
28577;SDS011;15769;52.248;15.818;2023-05-01T20:59:27;33.90;;;20.47;;
28577;SDS011;15769;52.248;15.818;2023-05-01T21:04:30;27.23;;;13.88;;
28577;SDS011;15769;52.248;15.818;2023-05-01T21:09:33;20.45;;;11.85;;
28577;SDS011;15769;52.248;15.818;2023-05-01T21:14:37;20.08;;;10.73;;
28577;SDS011;15769;52.248;15.818;2023-05-01T21:19:42;14.80;;;9.10;;
28577;SDS011;15769;52.248;15.818;2023-05-01T21:24:51;15.50;;;8.80;;
28577;SDS011;15769;52.248;15.818;2023-05-01T21:29:58;15.98;;;8.00;;
28577;SDS011;15769;52.248;15.818;2023-05-01T21:35:02;14.63;;;7.65;;
28577;SDS011;15769;52.248;15.818;2023-05-01T21:40:05;12.43;;;7.37;;
28577;SDS011;15769;52.248;15.818;2023-05-01T21:45:10;16.52;;;8.35;;
28577;SDS011;15769;52.248;15.818;2023-05-01T21:50:15;16.42;;;8.30;;
28577;SDS011;15769;52.248;15.818;2023-05-01T21:55:19;18.45;;;9.15;;
28577;SDS011;15769;52.248;15.818;2023-05-01T22:00:22;20.45;;;9.73;;
28577;SDS011;15769;52.248;15.818;2023-05-01T22:05:25;17.08;;;7.97;;
28577;SDS011;15769;52.248;15.818;2023-05-01T22:10:32;13.15;;;7.22;;
28577;SDS011;15769;52.248;15.818;2023-05-01T22:15:34;14.63;;;8.15;;
28577;SDS011;15769;52.248;15.818;2023-05-01T22:20:37;16.92;;;9.43;;
28577;SDS011;15769;52.248;15.818;2023-05-01T22:25:39;15.83;;;8.93;;
28577;SDS011;15769;52.248;15.818;2023-05-01T22:30:42;15.93;;;9.10;;
28577;SDS011;15769;52.248;15.818;2023-05-01T22:35:45;16.80;;;9.30;;
28577;SDS011;15769;52.248;15.818;2023-05-01T22:40:47;27.83;;;13.93;;
28577;SDS011;15769;52.248;15.818;2023-05-01T22:45:50;52.80;;;23.75;;
28577;SDS011;15769;52.248;15.818;2023-05-01T22:50:53;68.60;;;31.70;;
28577;SDS011;15769;52.248;15.818;2023-05-01T22:55:59;50.77;;;26.10;;
28577;SDS011;15769;52.248;15.818;2023-05-01T23:01:02;54.22;;;27.50;;
28577;SDS011;15769;52.248;15.818;2023-05-01T23:06:05;34.35;;;19.45;;
28577;SDS011;15769;52.248;15.818;2023-05-01T23:11:11;37.65;;;20.95;;
28577;SDS011;15769;52.248;15.818;2023-05-01T23:16:18;31.30;;;16.58;;
28577;SDS011;15769;52.248;15.818;2023-05-01T23:21:25;29.80;;;14.30;;
28577;SDS011;15769;52.248;15.818;2023-05-01T23:26:29;25.80;;;13.23;;
28577;SDS011;15769;52.248;15.818;2023-05-01T23:31:32;24.55;;;11.73;;
28577;SDS011;15769;52.248;15.818;2023-05-01T23:36:36;25.70;;;12.52;;
28577;SDS011;15769;52.248;15.818;2023-05-01T23:41:39;20.83;;;11.80;;
28577;SDS011;15769;52.248;15.818;2023-05-01T23:46:42;26.95;;;13.50;;
28577;SDS011;15769;52.248;15.818;2023-05-01T23:51:45;22.95;;;12.50;;
28577;SDS011;15769;52.248;15.818;2023-05-01T23:56:55;20.45;;;11.38;;
